createdAt,value
2018-11-25T00:04:50.895Z,101162.61
2018-11-25T00:09:53.076Z,101157.81
2018-11-25T00:14:55.212Z,101154.84
2018-11-25T00:19:57.394Z,101151.80
2018-11-25T00:24:59.607Z,101145.64
2018-11-25T00:30:01.812Z,101149.98
2018-11-25T00:35:03.967Z,101148.21
2018-11-25T00:40:07.922Z,101148.21
2018-11-25T00:45:12.497Z,101143.86
2018-11-25T00:50:14.732Z,101135.79
2018-11-25T00:55:17.202Z,101137.63
2018-11-25T01:00:19.538Z,101140.35
2018-11-25T01:05:21.729Z,101136.29
2018-11-25T01:10:23.890Z,101143.48
2018-11-25T01:15:26.063Z,101147.34
2018-11-25T01:20:28.205Z,101142.92
2018-11-25T01:25:30.356Z,101152.05
2018-11-25T01:30:32.523Z,101146.75
2018-11-25T01:35:34.668Z,101149.22
2018-11-25T01:40:36.782Z,101141.97
2018-11-25T01:45:38.950Z,101142.56
2018-11-25T01:50:41.099Z,101141.95
2018-11-25T01:55:43.270Z,101139.69
2018-11-25T02:00:45.421Z,101136.86
2018-11-25T02:05:47.577Z,101135.31
2018-11-25T02:10:49.733Z,101125.64
2018-11-25T02:15:51.833Z,101126.83
2018-11-25T02:20:55.551Z,101121.30
2018-11-25T02:25:57.694Z,101119.45
2018-11-25T02:30:59.851Z,101113.97
2018-11-25T02:36:01.976Z,101111.47
2018-11-25T02:41:04.177Z,101106.59
2018-11-25T02:46:06.361Z,101102.24
2018-11-25T02:51:08.506Z,101097.41
2018-11-25T02:56:10.634Z,101093.96
2018-11-25T03:01:12.726Z,101095.97
2018-11-25T03:06:14.872Z,101089.92
2018-11-25T03:11:17.027Z,101102.05
2018-11-25T03:16:19.199Z,101092.81
2018-11-25T03:21:21.343Z,101088.49
2018-11-25T03:26:23.484Z,101082.41
2018-11-25T03:31:25.614Z,101079.82
2018-11-25T03:36:27.732Z,101073.48
2018-11-25T03:41:29.866Z,101080.80
2018-11-25T03:46:32.052Z,101084.38
2018-11-25T03:51:34.219Z,101090.80
2018-11-25T03:56:36.346Z,101085.73
2018-11-25T04:01:38.482Z,101081.96
2018-11-25T04:06:40.600Z,101079.47
2018-11-25T04:11:42.728Z,101078.00
2018-11-25T04:16:44.869Z,101074.08
2018-11-25T04:21:47.007Z,101075.25
2018-11-25T04:26:49.143Z,101077.47
2018-11-25T04:31:51.263Z,101081.26
2018-11-25T04:36:53.382Z,101076.70
2018-11-25T04:41:55.486Z,101082.56
2018-11-25T04:46:57.620Z,101081.80
2018-11-25T04:51:59.733Z,101075.64
2018-11-25T04:57:01.867Z,101078.52
2018-11-25T05:02:03.999Z,101077.84
2018-11-25T05:07:06.265Z,101075.93
2018-11-25T05:12:08.390Z,101079.39
2018-11-25T05:17:10.535Z,101075.72
2018-11-25T05:22:12.670Z,101077.64
2018-11-25T05:27:14.816Z,101081.89
2018-11-25T05:32:16.938Z,101086.44
2018-11-25T05:37:19.068Z,101082.77
2018-11-25T05:42:21.159Z,101087.58
2018-11-25T05:47:23.285Z,101093.53
2018-11-25T05:52:25.448Z,101092.19
2018-11-25T05:57:27.548Z,101095.66
2018-11-25T06:02:29.651Z,101097.97
2018-11-25T06:07:31.755Z,101109.38
2018-11-25T06:12:33.864Z,101105.92
2018-11-25T06:17:35.975Z,101104.23
2018-11-25T06:22:38.095Z,101105.19
2018-11-25T06:27:40.299Z,101107.31
2018-11-25T06:32:42.447Z,101118.56
2018-11-25T06:37:44.644Z,101117.97
2018-11-25T06:42:46.850Z,101121.48
2018-11-25T06:47:49.036Z,101132.54
2018-11-25T06:52:51.194Z,101129.66
2018-11-25T06:57:53.290Z,101136.31
2018-11-25T07:02:55.420Z,101139.67
2018-11-25T07:07:57.556Z,101147.37
2018-11-25T07:12:59.666Z,101144.81
2018-11-25T07:18:01.788Z,101148.59
2018-11-25T07:23:03.983Z,101159.02
2018-11-25T07:28:18.044Z,101153.66
2018-11-25T07:33:08.311Z,101157.61
2018-11-25T07:38:10.443Z,101161.09
2018-11-25T07:43:12.593Z,101167.36
2018-11-25T07:48:14.807Z,101166.55
2018-11-25T07:53:16.954Z,101172.13
2018-11-25T07:58:19.088Z,101167.50
2018-11-25T08:03:21.253Z,101167.91
2018-11-25T08:08:23.351Z,101174.91
2018-11-25T08:13:25.508Z,101173.02
2018-11-25T08:18:27.658Z,101171.11
2018-11-25T08:23:29.800Z,101168.63
2018-11-25T08:28:31.944Z,101169.59
2018-11-25T08:33:34.061Z,101172.97
2018-11-25T08:38:36.208Z,101171.55
2018-11-25T08:43:38.349Z,101187.66
2018-11-25T08:48:40.546Z,101184.19
2018-11-25T08:53:42.692Z,101185.87
2018-11-25T08:58:44.820Z,101192.27
2018-11-25T09:03:46.956Z,101190.55
2018-11-25T09:08:49.122Z,101195.55
2018-11-25T09:13:51.241Z,101190.95
2018-11-25T09:18:53.399Z,101194.17
2018-11-25T09:23:55.588Z,101193.70
2018-11-25T09:28:57.785Z,101202.82
2018-11-25T09:33:59.933Z,101208.36
2018-11-25T09:39:02.147Z,101206.05
2018-11-25T09:44:04.611Z,101211.67
2018-11-25T09:49:06.861Z,101208.23
2018-11-25T09:54:09.014Z,101205.73
2018-11-25T09:59:11.978Z,101207.83
2018-11-25T10:04:14.191Z,101204.69
2018-11-25T10:09:16.378Z,101195.45
2018-11-25T10:14:18.512Z,101188.61
2018-11-25T10:19:20.696Z,101187.41
2018-11-25T10:24:22.841Z,101183.44
2018-11-25T10:29:24.983Z,101176.30
2018-11-25T10:34:27.189Z,101181.76
2018-11-25T10:39:29.345Z,101186.28
2018-11-25T10:44:31.540Z,101174.73
2018-11-25T10:49:33.730Z,101176.39
2018-11-25T10:54:35.893Z,101180.45
2018-11-25T10:59:38.055Z,101171.67
2018-11-25T11:05:45.207Z,101172.84
2018-11-25T11:10:47.343Z,101168.98
2018-11-25T11:15:49.516Z,101168.52
2018-11-25T11:20:51.654Z,101161.39
2018-11-25T11:25:53.800Z,101160.42
2018-11-25T11:30:55.997Z,101154.39
2018-11-25T11:35:58.181Z,101158.13
2018-11-25T11:41:00.362Z,101160.84
2018-11-25T11:46:02.524Z,101164.50
2018-11-25T11:51:04.888Z,101153.61
2018-11-25T11:56:07.046Z,101149.17
2018-11-25T12:01:09.219Z,101151.70
2018-11-25T12:06:11.404Z,101148.53
2018-11-25T12:11:13.585Z,101146.69
2018-11-25T12:16:15.765Z,101144.18
2018-11-25T12:21:17.922Z,101131.48
2018-11-25T12:26:20.116Z,101134.05
2018-11-25T12:31:22.278Z,101134.56
2018-11-25T12:36:25.134Z,101129.09
2018-11-25T12:41:27.277Z,101127.54
2018-11-25T12:46:29.597Z,101130.30
2018-11-25T12:51:31.789Z,101126.38
2018-11-25T12:56:33.947Z,101121.89
2018-11-25T13:01:36.116Z,101124.19
2018-11-25T13:06:38.253Z,101122.48
2018-11-25T13:11:40.406Z,101124.17
2018-11-25T13:16:42.839Z,101127.50
2018-11-25T13:21:46.543Z,101120.46
2018-11-25T13:26:48.901Z,101123.05
2018-11-25T13:31:51.225Z,101123.94
2018-11-25T13:36:53.424Z,101117.87
2018-11-25T13:41:55.845Z,101129.22
2018-11-25T13:46:58.008Z,101125.03
2018-11-25T13:52:00.329Z,101130.36
2018-11-25T13:57:03.316Z,101140.22
2018-11-25T14:02:05.735Z,101149.00
2018-11-25T14:07:07.921Z,101146.20
2018-11-25T14:12:10.088Z,101152.64
2018-11-25T14:17:12.317Z,101160.29
2018-11-25T14:22:14.541Z,101166.94
2018-11-25T14:27:16.787Z,101170.70
2018-11-25T14:32:19.015Z,101172.84
2018-11-25T14:37:21.186Z,101175.05
2018-11-25T14:42:23.383Z,101175.63
2018-11-25T14:47:25.570Z,101183.16
2018-11-25T14:52:27.767Z,101181.61
2018-11-25T14:57:29.939Z,101177.56
2018-11-25T15:02:32.171Z,101179.78
2018-11-25T15:07:34.389Z,101184.21
2018-11-25T15:12:36.615Z,101182.28
2018-11-25T15:17:39.104Z,101181.23
2018-11-25T15:22:44.008Z,101194.44
2018-11-25T15:27:46.285Z,101192.14
2018-11-25T15:32:48.497Z,101204.47
2018-11-25T15:37:51.565Z,101201.09
2018-11-25T15:42:53.736Z,101202.22
2018-11-25T15:47:58.459Z,101208.11
2018-11-25T15:53:00.752Z,101203.22
2018-11-25T15:58:02.991Z,101204.84
2018-11-25T16:03:07.184Z,101207.05
2018-11-25T16:08:09.415Z,101210.73
2018-11-25T16:13:11.630Z,101213.45
2018-11-25T16:18:13.919Z,101209.56
2018-11-25T16:23:16.088Z,101213.24
2018-11-25T16:28:22.725Z,101218.55
2018-11-25T16:33:24.921Z,101213.33
2018-11-25T16:38:27.160Z,101216.05
2018-11-25T16:43:29.360Z,101216.41
2018-11-25T16:48:31.548Z,101206.09
2018-11-25T16:53:33.802Z,101206.77
2018-11-25T16:58:35.961Z,101208.02
2018-11-25T17:03:38.120Z,101209.86
2018-11-25T17:08:41.642Z,101202.84
2018-11-25T17:13:43.845Z,101206.86
2018-11-25T17:18:46.072Z,101207.73
2018-11-25T17:23:48.220Z,101208.23
2018-11-25T17:28:50.409Z,101209.95
2018-11-25T17:33:52.640Z,101211.03
2018-11-25T17:38:54.847Z,101216.63
2018-11-25T17:43:57.070Z,101214.50
2018-11-25T17:48:59.293Z,101222.77
2018-11-25T17:54:01.575Z,101223.86
2018-11-25T17:59:03.862Z,101231.16
2018-11-25T18:04:06.247Z,101238.97
2018-11-25T18:09:09.894Z,101242.73
2018-11-25T18:14:12.181Z,101249.95
2018-11-25T18:19:21.212Z,101248.83
2018-11-25T18:24:24.971Z,101248.25
2018-11-25T18:29:30.161Z,101250.09
2018-11-25T18:34:33.508Z,101250.64
2018-11-25T18:39:36.434Z,101247.37
2018-11-25T18:44:39.440Z,101250.63
2018-11-25T18:49:41.912Z,101254.11
2018-11-25T18:54:45.122Z,101250.52
2018-11-25T18:59:48.112Z,101251.61
2018-11-25T19:04:51.236Z,101259.03
2018-11-25T19:09:54.015Z,101252.86
2018-11-25T19:14:56.353Z,101260.10
2018-11-25T19:20:01.939Z,101269.55
2018-11-25T19:25:09.497Z,101265.97
2018-11-25T19:30:16.292Z,101274.61
2018-11-25T19:35:22.981Z,101272.18
2018-11-25T19:40:29.603Z,101264.59
2018-11-25T19:45:34.386Z,101273.25
2018-11-25T19:50:40.366Z,101271.63
2018-11-25T19:55:47.062Z,101278.55
2018-11-25T20:00:53.926Z,101280.28
2018-11-25T20:06:00.026Z,101279.52
2018-11-25T20:11:06.123Z,101285.31
2018-11-25T20:16:18.512Z,101284.14
2018-11-25T20:21:29.522Z,101294.87
2018-11-25T20:26:35.717Z,101289.20
2018-11-25T20:31:41.601Z,101301.67
2018-11-25T20:36:47.753Z,101289.73
2018-11-25T20:41:54.479Z,101294.80
2018-11-25T20:47:07.388Z,101299.69
2018-11-25T20:52:18.185Z,101297.30
2018-11-25T20:57:23.671Z,101299.92
2018-11-25T21:02:29.322Z,101299.14
2018-11-25T21:07:33.178Z,101299.36
2018-11-25T21:12:36.664Z,101307.70
2018-11-25T21:17:39.914Z,101305.43
2018-11-25T21:22:42.188Z,101312.42
2018-11-25T21:27:44.548Z,101307.31
2018-11-25T21:32:47.833Z,101312.95
2018-11-25T21:37:50.894Z,101313.67
2018-11-25T21:42:53.079Z,101314.85
2018-11-25T21:47:55.330Z,101306.94
2018-11-25T21:52:57.480Z,101308.30
2018-11-25T21:57:59.661Z,101302.88
2018-11-25T22:03:01.821Z,101297.29
2018-11-25T22:08:04.356Z,101307.89
2018-11-25T22:13:06.501Z,101308.30
2018-11-25T22:18:08.642Z,101317.23
2018-11-25T22:23:10.806Z,101318.14
2018-11-25T22:28:12.952Z,101308.49
2018-11-25T22:33:15.051Z,101303.48
2018-11-25T22:38:17.221Z,101304.02
2018-11-25T22:43:19.397Z,101313.69
2018-11-25T22:48:21.536Z,101317.23
2018-11-25T22:53:24.401Z,101303.98
2018-11-25T22:58:27.340Z,101309.84
2018-11-25T23:03:29.498Z,101311.69
2018-11-25T23:08:31.652Z,101314.51
2018-11-25T23:13:33.997Z,101314.77
2018-11-25T23:18:36.197Z,101317.93
2018-11-25T23:23:38.316Z,101315.85
2018-11-25T23:28:40.505Z,101312.53
2018-11-25T23:33:42.811Z,101321.31
2018-11-25T23:38:44.922Z,101310.34
2018-11-25T23:43:47.138Z,101314.77
2018-11-25T23:48:49.522Z,101320.09
2018-11-25T23:53:51.623Z,101320.34
2018-11-25T23:58:53.782Z,101323.05
